createdAt,value
2023-03-02T00:01:41.370Z,0.62
2023-03-02T00:04:46.683Z,0.56
2023-03-02T00:07:49.000Z,0.49
2023-03-02T00:10:54.445Z,0.44
2023-03-02T00:13:57.268Z,0.38
2023-03-02T00:16:59.935Z,0.31
2023-03-02T00:20:12.212Z,0.26
2023-03-02T00:23:15.901Z,0.24
2023-03-02T00:26:18.190Z,0.33
2023-03-02T00:29:21.027Z,0.23
2023-03-02T00:32:23.940Z,0.22
2023-03-02T00:35:27.113Z,0.13
2023-03-02T00:38:29.521Z,0.05
2023-03-02T00:41:32.438Z,0.00
2023-03-02T00:44:34.751Z,-0.04
2023-03-02T00:47:37.584Z,-0.06
2023-03-02T00:50:41.320Z,-0.13
2023-03-02T00:53:44.337Z,-0.16
2023-03-02T00:56:46.880Z,-0.04
2023-03-02T00:59:49.871Z,-0.09
2023-03-02T01:02:52.958Z,-0.06
2023-03-02T01:05:58.599Z,-0.06
2023-03-02T01:09:00.908Z,-0.14
2023-03-02T01:12:05.543Z,0.03
2023-03-02T01:15:08.779Z,-0.04
2023-03-02T01:18:12.255Z,-0.08
2023-03-02T01:21:15.863Z,-0.12
2023-03-02T01:24:18.643Z,-0.18
2023-03-02T01:27:21.120Z,-0.21
2023-03-02T01:30:24.401Z,-0.22
2023-03-02T01:33:26.942Z,-0.25
2023-03-02T01:36:29.694Z,-0.28
2023-03-02T01:39:32.158Z,-0.24
2023-03-02T01:42:38.727Z,-0.18
2023-03-02T01:45:51.735Z,-0.11
2023-03-02T01:49:02.708Z,0.01
2023-03-02T01:52:05.871Z,0.19
2023-03-02T01:55:10.654Z,0.09
2023-03-02T01:58:15.289Z,-0.03
2023-03-02T02:01:18.275Z,-0.13
2023-03-02T02:04:21.880Z,-0.16
2023-03-02T02:07:24.664Z,0.10
2023-03-02T02:10:28.222Z,0.10
2023-03-02T02:13:30.722Z,0.19
2023-03-02T02:16:34.254Z,0.28
2023-03-02T02:19:55.227Z,0.25
2023-03-02T02:23:13.846Z,0.19
2023-03-02T02:26:18.577Z,0.27
2023-03-02T02:29:33.088Z,0.11
2023-03-02T02:32:39.111Z,0.11
2023-03-02T02:35:46.876Z,-0.01
2023-03-02T02:38:51.831Z,-0.06
2023-03-02T02:41:56.876Z,-0.04
2023-03-02T02:45:03.763Z,-0.12
2023-03-02T02:48:08.926Z,-0.04
2023-03-02T02:51:16.116Z,-0.11
2023-03-02T02:54:19.633Z,-0.23
2023-03-02T02:57:25.242Z,-0.37
2023-03-02T03:00:31.177Z,-0.37
2023-03-02T03:03:35.403Z,-0.35
2023-03-02T03:06:48.995Z,-0.30
2023-03-02T03:09:57.662Z,-0.27
2023-03-02T03:13:01.462Z,-0.30
2023-03-02T03:16:06.313Z,-0.32
2023-03-02T03:19:23.727Z,-0.49
2023-03-02T03:22:26.294Z,-0.57
2023-03-02T03:25:29.013Z,-0.62
2023-03-02T03:28:33.185Z,-0.51
2023-03-02T03:31:36.599Z,-0.49
2023-03-02T03:34:41.103Z,-0.57
2023-03-02T03:37:45.802Z,-0.54
2023-03-02T03:40:50.579Z,-0.53
2023-03-02T03:43:53.602Z,-0.40
2023-03-02T03:46:56.354Z,-0.44
2023-03-02T03:49:59.232Z,-0.48
2023-03-02T03:53:03.898Z,-0.50
2023-03-02T03:56:07.600Z,-0.48
2023-03-02T03:59:12.337Z,-0.49
2023-03-02T04:02:15.868Z,-0.48
2023-03-02T04:05:19.605Z,-0.59
2023-03-02T04:08:24.015Z,-0.68
2023-03-02T04:11:26.736Z,-0.77
2023-03-02T04:14:29.382Z,-0.80
2023-03-02T04:17:32.200Z,-0.89
2023-03-02T04:20:35.449Z,-0.83
2023-03-02T04:23:39.048Z,-0.89
2023-03-02T04:26:42.174Z,-0.97
2023-03-02T04:29:45.559Z,-1.07
2023-03-02T04:32:48.438Z,-1.05
2023-03-02T04:35:51.745Z,-0.99
2023-03-02T04:38:54.519Z,-1.07
2023-03-02T04:41:57.583Z,-1.15
2023-03-02T04:44:59.843Z,-1.23
2023-03-02T04:48:02.525Z,-1.31
2023-03-02T04:51:05.034Z,-1.39
2023-03-02T04:54:10.723Z,-1.47
2023-03-02T04:57:13.147Z,-1.51
2023-03-02T05:00:17.190Z,-1.51
2023-03-02T05:03:21.721Z,-1.50
2023-03-02T05:06:25.278Z,-1.48
2023-03-02T05:09:29.394Z,-1.34
2023-03-02T05:12:52.135Z,-1.37
2023-03-02T05:15:57.515Z,-1.43
2023-03-02T05:19:01.299Z,-1.45
2023-03-02T05:22:03.932Z,-1.47
2023-03-02T05:25:06.869Z,-1.48
2023-03-02T05:28:09.578Z,-1.42
2023-03-02T05:31:17.834Z,-1.42
2023-03-02T05:34:20.448Z,-1.30
2023-03-02T05:37:24.559Z,-1.29
2023-03-02T05:40:27.286Z,-1.25
2023-03-02T05:43:31.213Z,-1.22
2023-03-02T05:46:33.791Z,-1.16
2023-03-02T05:49:36.823Z,-1.07
2023-03-02T05:52:39.115Z,-0.97
2023-03-02T05:55:41.757Z,-0.91
2023-03-02T05:58:44.077Z,-0.87
2023-03-02T06:01:48.110Z,-0.81
2023-03-02T06:04:50.921Z,-0.69
2023-03-02T06:07:53.858Z,-0.57
2023-03-02T06:10:58.991Z,-0.46
2023-03-02T06:14:01.254Z,-0.33
2023-03-02T06:17:03.940Z,-0.17
2023-03-02T06:20:11.244Z,0.00
2023-03-02T06:23:14.288Z,0.20
2023-03-02T06:26:16.840Z,0.44
2023-03-02T06:29:19.539Z,0.72
2023-03-02T06:32:21.963Z,0.92
2023-03-02T06:35:24.880Z,1.08
2023-03-02T06:38:27.500Z,1.29
2023-03-02T06:41:30.501Z,1.51
2023-03-02T06:44:32.984Z,2.06
2023-03-02T06:47:35.636Z,3.01
2023-03-02T06:50:38.797Z,4.37
2023-03-02T06:53:41.569Z,5.12
2023-03-02T06:56:43.893Z,8.53
2023-03-02T06:59:46.469Z,11.33
2023-03-02T07:02:50.130Z,14.42
2023-03-02T07:05:52.882Z,14.88
2023-03-02T07:08:55.215Z,13.56
2023-03-02T07:11:58.056Z,12.83
2023-03-02T07:15:00.366Z,15.17
2023-03-02T07:18:02.961Z,14.96
2023-03-02T07:21:06.169Z,15.57
2023-03-02T07:24:08.789Z,15.42
2023-03-02T07:27:11.206Z,14.11
2023-03-02T07:30:15.289Z,13.06
2023-03-02T07:33:18.858Z,12.70
2023-03-02T07:36:21.828Z,13.77
2023-03-02T07:39:24.190Z,12.57
2023-03-02T07:42:27.085Z,12.36
2023-03-02T07:45:30.765Z,11.61
2023-03-02T07:48:33.724Z,12.28
2023-03-02T07:51:36.339Z,12.99
2023-03-02T07:54:39.083Z,13.91
2023-03-02T07:57:41.481Z,13.48
2023-03-02T08:00:44.290Z,13.69
2023-03-02T08:03:47.278Z,12.53
2023-03-02T08:06:49.691Z,11.58
2023-03-02T08:09:52.537Z,10.48
2023-03-02T08:12:55.319Z,9.89
2023-03-02T08:16:05.394Z,10.52
2023-03-02T08:19:08.925Z,10.97
2023-03-02T08:22:12.097Z,10.26
2023-03-02T08:25:14.404Z,10.65
2023-03-02T08:28:17.193Z,12.26
2023-03-02T08:31:19.682Z,13.51
2023-03-02T08:34:22.424Z,12.92
2023-03-02T08:37:24.666Z,12.07
2023-03-02T08:40:27.258Z,10.71
2023-03-02T08:43:29.904Z,12.24
2023-03-02T08:46:32.726Z,14.46
2023-03-02T08:49:36.818Z,16.19
2023-03-02T08:52:39.553Z,13.84
2023-03-02T08:55:41.987Z,11.38
2023-03-02T08:58:44.851Z,10.08
2023-03-02T09:01:47.504Z,9.51
2023-03-02T09:04:50.396Z,9.53
2023-03-02T09:07:55.326Z,9.48
2023-03-02T09:11:00.109Z,9.23
2023-03-02T09:14:02.674Z,9.45
2023-03-02T09:17:05.757Z,9.43
2023-03-02T09:20:08.744Z,9.18
2023-03-02T09:23:15.368Z,9.29
2023-03-02T09:26:18.698Z,9.29
2023-03-02T09:29:21.466Z,9.25
2023-03-02T09:32:23.974Z,9.55
2023-03-02T09:35:26.692Z,9.53
2023-03-02T09:38:29.092Z,9.63
2023-03-02T09:41:39.037Z,9.96
2023-03-02T09:44:59.597Z,10.11
2023-03-02T09:48:15.339Z,10.23
2023-03-02T09:51:39.518Z,9.90
2023-03-02T09:54:42.346Z,10.31
2023-03-02T09:57:46.902Z,10.36
2023-03-02T10:00:51.101Z,10.34
2023-03-02T10:04:00.297Z,10.45
2023-03-02T10:07:11.990Z,10.29
2023-03-02T10:10:26.814Z,10.49
2023-03-02T10:13:49.419Z,10.46
2023-03-02T10:16:55.116Z,10.38
2023-03-02T10:20:00.903Z,10.64
2023-03-02T10:23:21.916Z,11.05
2023-03-02T10:26:24.296Z,11.07
2023-03-02T10:29:42.743Z,10.92
2023-03-02T10:32:52.917Z,11.05
2023-03-02T10:35:55.783Z,11.09
2023-03-02T10:39:00.555Z,11.32
2023-03-02T10:42:04.725Z,11.10
2023-03-02T10:45:23.913Z,11.32
2023-03-02T10:48:27.266Z,11.40
2023-03-02T10:51:30.687Z,11.41
2023-03-02T10:54:36.901Z,11.59
2023-03-02T10:57:40.116Z,11.53
2023-03-02T11:00:42.723Z,11.29
2023-03-02T11:03:54.984Z,11.29
2023-03-02T11:07:07.718Z,11.62
2023-03-02T11:10:24.394Z,11.64
2023-03-02T11:13:37.205Z,11.74
2023-03-02T11:16:39.649Z,11.66
2023-03-02T11:19:42.943Z,11.85
2023-03-02T11:22:49.988Z,11.74
2023-03-02T11:26:01.897Z,11.81
2023-03-02T11:29:16.310Z,11.68
2023-03-02T11:32:18.878Z,11.85
2023-03-02T11:35:36.996Z,12.02
2023-03-02T11:38:54.500Z,12.07
2023-03-02T11:41:56.849Z,12.13
2023-03-02T11:45:17.607Z,12.24
2023-03-02T11:48:24.180Z,12.12
2023-03-02T11:51:29.437Z,12.24
2023-03-02T11:54:54.014Z,12.36
2023-03-02T12:01:10.905Z,12.39
2023-03-02T12:04:26.048Z,12.42
2023-03-02T12:07:28.434Z,12.27
2023-03-02T12:10:35.545Z,12.31
2023-03-02T12:13:39.026Z,12.51
2023-03-02T12:16:42.014Z,12.69
2023-03-02T12:19:45.295Z,12.79
2023-03-02T12:22:47.986Z,12.72
2023-03-02T12:26:01.157Z,12.86
2023-03-02T12:29:22.674Z,12.84
2023-03-02T12:32:27.729Z,12.71
2023-03-02T12:35:31.820Z,12.62
2023-03-02T12:38:37.277Z,12.60
2023-03-02T12:41:48.106Z,12.66
2023-03-02T12:44:55.222Z,12.63
2023-03-02T12:48:07.522Z,12.79
2023-03-02T12:51:36.869Z,12.74
2023-03-02T12:54:39.625Z,12.67
2023-03-02T12:57:52.742Z,12.45
2023-03-02T13:00:58.822Z,12.63
2023-03-02T13:04:01.220Z,12.63
2023-03-02T13:07:04.882Z,12.35
2023-03-02T13:10:30.864Z,12.34
2023-03-02T13:13:44.505Z,12.39
2023-03-02T13:17:02.890Z,12.36
2023-03-02T13:20:05.958Z,12.50
2023-03-02T13:23:13.789Z,12.22
2023-03-02T13:26:49.149Z,12.31
2023-03-02T13:29:52.928Z,12.34
2023-03-02T13:33:15.807Z,12.46
2023-03-02T13:36:22.682Z,12.49
2023-03-02T13:39:30.170Z,12.44
2023-03-02T13:42:41.448Z,12.65
2023-03-02T13:45:51.523Z,12.69
2023-03-02T13:49:07.476Z,12.53
2023-03-02T13:52:24.366Z,12.40
2023-03-02T13:55:26.708Z,12.35
2023-03-02T13:58:31.882Z,12.46
2023-03-02T14:01:34.382Z,12.51
2023-03-02T14:04:37.084Z,12.22
2023-03-02T14:07:39.436Z,12.35
2023-03-02T14:10:42.516Z,12.40
2023-03-02T14:13:53.715Z,12.42
2023-03-02T14:16:56.381Z,12.39
2023-03-02T14:19:59.164Z,12.29
2023-03-02T14:23:06.893Z,12.38
2023-03-02T14:26:18.390Z,12.21
2023-03-02T14:29:28.924Z,12.26
2023-03-02T14:32:31.606Z,12.04
2023-03-02T14:35:34.263Z,12.11
2023-03-02T14:38:36.856Z,12.11
2023-03-02T14:41:52.810Z,12.14
2023-03-02T14:44:55.913Z,12.15
2023-03-02T14:47:58.931Z,12.08
2023-03-02T14:51:04.146Z,12.05
2023-03-02T14:54:08.613Z,11.93
2023-03-02T14:57:17.418Z,11.91
2023-03-02T15:00:21.867Z,11.93
2023-03-02T15:03:28.178Z,11.86
2023-03-02T15:06:32.261Z,11.83
2023-03-02T15:09:35.814Z,11.75
2023-03-02T15:12:38.477Z,11.60
2023-03-02T15:15:42.034Z,11.55
2023-03-02T15:18:44.735Z,11.52
2023-03-02T15:21:47.322Z,11.45
2023-03-02T15:24:49.917Z,11.43
2023-03-02T15:27:53.269Z,11.34
2023-03-02T15:30:58.067Z,11.22
2023-03-02T15:34:00.516Z,11.19
2023-03-02T15:37:03.423Z,11.14
2023-03-02T15:40:06.073Z,11.09
2023-03-02T15:43:10.410Z,10.94
2023-03-02T15:46:12.832Z,10.83
2023-03-02T15:49:15.840Z,10.79
2023-03-02T15:52:20.011Z,10.58
2023-03-02T15:55:23.042Z,10.44
2023-03-02T15:58:25.442Z,10.53
2023-03-02T16:01:28.446Z,10.50
2023-03-02T16:04:32.848Z,10.25
2023-03-02T16:07:37.213Z,9.96
2023-03-02T16:10:42.828Z,9.97
2023-03-02T16:13:45.194Z,9.87
2023-03-02T16:16:48.193Z,9.80
2023-03-02T16:19:51.312Z,9.77
2023-03-02T16:22:54.002Z,9.49
2023-03-02T16:26:06.254Z,9.29
2023-03-02T16:29:09.125Z,9.12
2023-03-02T16:32:11.655Z,9.04
2023-03-02T16:35:23.295Z,8.83
2023-03-02T16:38:25.774Z,8.74
2023-03-02T16:41:28.479Z,8.65
2023-03-02T16:44:30.986Z,8.57
2023-03-02T16:47:33.586Z,8.61
2023-03-02T16:50:38.506Z,9.03
2023-03-02T16:53:41.191Z,8.97
2023-03-02T16:56:46.830Z,8.70
2023-03-02T16:59:49.489Z,8.53
2023-03-02T17:02:51.942Z,8.30
2023-03-02T17:05:54.614Z,8.13
2023-03-02T17:08:56.965Z,8.18
2023-03-02T17:12:02.893Z,8.00
2023-03-02T17:15:05.457Z,7.88
2023-03-02T17:18:08.281Z,7.94
2023-03-02T17:21:11.076Z,7.76
2023-03-02T17:24:13.886Z,7.79
2023-03-02T17:27:25.018Z,7.83
2023-03-02T17:30:28.287Z,7.76
2023-03-02T17:33:30.989Z,7.70
2023-03-02T17:36:36.516Z,7.54
2023-03-02T17:39:39.300Z,7.55
2023-03-02T17:42:42.390Z,7.75
2023-03-02T17:45:45.667Z,7.78
2023-03-02T17:48:49.252Z,7.77
2023-03-02T17:51:51.607Z,7.77
2023-03-02T17:54:54.424Z,7.75
2023-03-02T17:57:56.778Z,7.63
2023-03-02T18:01:02.731Z,7.39
2023-03-02T18:04:06.776Z,7.38
2023-03-02T18:07:09.165Z,7.29
2023-03-02T18:10:12.665Z,7.18
2023-03-02T18:13:16.457Z,7.01
2023-03-02T18:16:19.067Z,6.85
2023-03-02T18:19:21.463Z,6.77
2023-03-02T18:22:24.294Z,6.78
2023-03-02T18:25:27.076Z,6.62
2023-03-02T18:28:29.670Z,6.70
2023-03-02T18:31:34.042Z,6.68
2023-03-02T18:34:36.889Z,6.71
2023-03-02T18:37:39.441Z,6.69
2023-03-02T18:40:44.903Z,6.67
2023-03-02T18:43:47.919Z,6.54
2023-03-02T18:46:50.888Z,6.42
2023-03-02T18:49:53.469Z,6.36
2023-03-02T18:52:56.424Z,6.38
2023-03-02T18:55:58.742Z,6.30
2023-03-02T18:59:02.043Z,6.19
2023-03-02T19:02:06.111Z,6.12
2023-03-02T19:05:09.349Z,5.97
2023-03-02T19:08:12.131Z,5.97
2023-03-02T19:11:15.067Z,5.81
2023-03-02T19:14:17.442Z,5.74
2023-03-02T19:17:20.178Z,5.59
2023-03-02T19:20:23.464Z,5.46
2023-03-02T19:23:26.125Z,5.41
2023-03-02T19:26:28.483Z,5.30
2023-03-02T19:29:31.237Z,5.21
2023-03-02T19:32:33.679Z,5.12
2023-03-02T19:35:37.796Z,5.02
2023-03-02T19:38:44.613Z,5.00
2023-03-02T19:41:47.409Z,4.92
2023-03-02T19:44:49.807Z,4.84
2023-03-02T19:47:52.364Z,4.77
2023-03-02T19:50:55.744Z,4.72
2023-03-02T19:53:58.473Z,4.63
2023-03-02T19:57:03.231Z,4.53
2023-03-02T20:00:07.674Z,4.53
2023-03-02T20:03:13.983Z,4.43
2023-03-02T20:06:16.345Z,4.31
2023-03-02T20:09:20.250Z,4.19
2023-03-02T20:12:22.643Z,4.10
2023-03-02T20:15:26.885Z,4.09
2023-03-02T20:18:29.278Z,4.01
2023-03-02T20:21:33.550Z,3.93
2023-03-02T20:24:36.430Z,3.86
2023-03-02T20:27:39.080Z,3.84
2023-03-02T20:30:44.125Z,3.74
2023-03-02T20:33:49.382Z,3.66
2023-03-02T20:36:52.077Z,3.60
2023-03-02T20:39:54.776Z,3.71
2023-03-02T20:42:57.374Z,3.67
2023-03-02T20:46:00.545Z,3.58
2023-03-02T20:49:04.274Z,3.56
2023-03-02T20:52:08.044Z,3.49
2023-03-02T20:55:10.557Z,3.41
2023-03-02T20:58:13.557Z,3.54
2023-03-02T21:01:17.859Z,3.50
2023-03-02T21:04:20.895Z,3.38
2023-03-02T21:07:23.402Z,3.33
2023-03-02T21:10:28.701Z,3.27
2023-03-02T21:13:31.165Z,3.19
2023-03-02T21:16:37.060Z,3.13
2023-03-02T21:19:39.389Z,3.09
2023-03-02T21:22:42.451Z,3.09
2023-03-02T21:25:44.923Z,3.07
2023-03-02T21:28:48.046Z,3.02
2023-03-02T21:31:50.514Z,2.93
2023-03-02T21:34:53.257Z,2.82
2023-03-02T21:37:57.120Z,2.86
2023-03-02T21:41:01.382Z,2.95
2023-03-02T21:44:05.739Z,2.89
2023-03-02T21:47:08.525Z,2.88
2023-03-02T21:50:15.592Z,2.78
2023-03-02T21:53:19.529Z,2.74
2023-03-02T21:56:23.113Z,2.71
2023-03-02T21:59:25.663Z,2.61
2023-03-02T22:02:28.036Z,2.59
2023-03-02T22:05:31.988Z,2.52
2023-03-02T22:08:35.473Z,2.52
2023-03-02T22:11:39.169Z,2.44
2023-03-02T22:14:41.820Z,2.44
2023-03-02T22:17:44.479Z,2.40
2023-03-02T22:20:48.452Z,2.42
2023-03-02T22:23:54.548Z,2.37
2023-03-02T22:27:18.914Z,2.32
2023-03-02T22:30:23.765Z,2.30
2023-03-02T22:33:28.237Z,2.22
2023-03-02T22:36:30.796Z,2.16
2023-03-02T22:39:33.583Z,2.12
2023-03-02T22:42:36.240Z,2.07
2023-03-02T22:45:40.028Z,1.99
2023-03-02T22:48:52.554Z,2.01
2023-03-02T22:51:56.049Z,2.09
2023-03-02T22:54:58.698Z,2.07
2023-03-02T22:58:08.732Z,2.07
2023-03-02T23:01:25.674Z,2.05
2023-03-02T23:04:32.004Z,1.96
2023-03-02T23:07:34.726Z,1.89
2023-03-02T23:10:37.706Z,1.84
2023-03-02T23:13:40.783Z,1.77
2023-03-02T23:16:43.454Z,1.71
2023-03-02T23:19:46.136Z,1.69
2023-03-02T23:22:50.053Z,1.73
2023-03-02T23:25:52.980Z,1.71
2023-03-02T23:28:55.499Z,1.72
2023-03-02T23:31:58.194Z,1.65
2023-03-02T23:35:00.722Z,1.59
2023-03-02T23:38:03.333Z,1.62
2023-03-02T23:41:07.453Z,1.62
2023-03-02T23:44:10.053Z,1.52
2023-03-02T23:47:12.378Z,1.49
2023-03-02T23:50:15.106Z,1.43
2023-03-02T23:53:17.623Z,1.42
2023-03-02T23:56:21.006Z,1.39
2023-03-02T23:59:23.498Z,1.39
